Terminal Aerodrome Forecast
Issued by NWS

Home | Current Version | Previous Version | Text Only | Print | Product List | Glossary On
Versions: 1 2 3 4 5 6 7 8 9 10 11 12 13 14 15
000
FTUS43 KDLH 212008 AAA
TAFHYR
TAF AMD
KHYR 212008Z 2120/2218 32010G21KT P6SM FEW030
     FM212300 31010KT P6SM FEW030
     FM220200 31006KT P6SM FEW025
     FM221100 VRB03KT P6SM FEW150=

USA.gov is the U.S. government's official web portal to all federal, state and local government web resources and services.